createdAt,value
2018-06-28T00:00:00.552Z,12.70
2018-06-28T00:02:29.574Z,12.70
2018-06-28T00:04:58.668Z,12.70
2018-06-28T00:07:27.707Z,12.80
2018-06-28T00:12:25.463Z,12.90
2018-06-28T00:14:54.462Z,12.80
2018-06-28T00:17:23.692Z,12.90
2018-06-28T00:19:52.746Z,12.80
2018-06-28T00:24:50.468Z,12.80
2018-06-28T00:27:19.498Z,12.80
2018-06-28T00:32:17.310Z,12.80
2018-06-28T00:34:46.409Z,12.70
2018-06-28T00:39:44.364Z,12.70
2018-06-28T00:42:13.395Z,12.70
2018-06-28T00:44:42.808Z,12.70
2018-06-28T00:47:11.828Z,12.90
2018-06-28T00:49:40.855Z,12.90
2018-06-28T00:52:09.916Z,13.10
2018-06-28T00:54:39.152Z,13.10
2018-06-28T00:57:08.766Z,13.20
2018-06-28T00:59:38.093Z,13.20
2018-06-28T01:02:07.185Z,13.10
2018-06-28T01:04:36.203Z,13.10
2018-06-28T01:07:05.415Z,13.10
2018-06-28T01:09:34.473Z,13.10
2018-06-28T01:14:32.376Z,13.20
2018-06-28T01:17:01.485Z,13.20
2018-06-28T01:19:30.695Z,13.10
2018-06-28T01:21:59.800Z,13.10
2018-06-28T01:26:57.533Z,13.10
2018-06-28T01:29:26.592Z,13.10
2018-06-28T01:31:55.685Z,13.10
2018-06-28T01:34:24.704Z,13.10
2018-06-28T01:39:22.379Z,13.10
2018-06-28T01:42:02.584Z,13.20
2018-06-28T01:44:31.583Z,13.10
2018-06-28T01:47:00.611Z,13.00
2018-06-28T01:49:29.665Z,13.10
2018-06-28T01:51:58.680Z,13.10
2018-06-28T01:54:27.693Z,13.10
2018-06-28T01:56:56.754Z,13.20
2018-06-28T01:59:25.782Z,13.10
2018-06-28T02:01:54.859Z,13.20
2018-06-28T02:04:24.352Z,13.20
2018-06-28T02:09:22.168Z,13.20
2018-06-28T02:11:51.179Z,13.30
2018-06-28T02:14:20.224Z,13.30
2018-06-28T02:16:49.264Z,13.30
2018-06-28T02:19:18.272Z,13.40
2018-06-28T02:21:47.308Z,13.30
2018-06-28T02:24:16.340Z,13.30
2018-06-28T02:26:45.368Z,13.30
2018-06-28T02:29:14.383Z,13.30
2018-06-28T02:31:43.384Z,13.30
2018-06-28T02:34:12.432Z,13.20
2018-06-28T02:36:41.683Z,13.30
2018-06-28T02:41:39.359Z,13.40
2018-06-28T02:44:08.391Z,13.40
2018-06-28T02:46:37.531Z,13.50
2018-06-28T02:51:35.196Z,13.50
2018-06-28T02:56:33.155Z,13.40
2018-06-28T02:59:02.180Z,13.50
2018-06-28T03:04:00.089Z,13.50
2018-06-28T03:06:29.131Z,13.40
2018-06-28T03:08:58.199Z,13.60
2018-06-28T03:11:27.241Z,13.70
2018-06-28T03:13:56.284Z,13.80
2018-06-28T03:16:25.322Z,13.80
2018-06-28T03:18:54.454Z,13.60
2018-06-28T03:23:52.116Z,13.60
2018-06-28T03:26:21.126Z,13.60
2018-06-28T03:28:50.128Z,13.60
2018-06-28T03:31:19.188Z,13.60
2018-06-28T03:33:48.240Z,13.70
2018-06-28T03:36:17.276Z,13.70
2018-06-28T03:38:46.332Z,13.70
2018-06-28T03:41:15.384Z,13.70
2018-06-28T03:46:13.067Z,13.70
2018-06-28T03:51:10.702Z,13.70
2018-06-28T03:53:39.916Z,13.80
2018-06-28T03:56:08.996Z,13.80
2018-06-28T03:58:38.019Z,13.80
2018-06-28T04:01:07.056Z,13.80
2018-06-28T04:03:36.104Z,13.90
2018-06-28T04:06:05.556Z,14.00
2018-06-28T04:08:34.596Z,14.00
2018-06-28T04:11:03.704Z,14.00
2018-06-28T04:13:32.704Z,14.00
2018-06-28T04:16:01.739Z,14.00
2018-06-28T04:20:59.427Z,14.20
2018-06-28T04:23:28.471Z,14.20
2018-06-28T04:25:57.543Z,14.20
2018-06-28T04:28:26.600Z,14.30
2018-06-28T04:30:55.616Z,14.40
2018-06-28T04:35:53.295Z,14.40
2018-06-28T04:38:22.332Z,14.30
2018-06-28T04:40:51.399Z,14.40
2018-06-28T04:43:20.380Z,14.50
2018-06-28T04:45:49.716Z,14.60
2018-06-28T04:48:18.750Z,14.60
2018-06-28T04:50:47.737Z,14.70
2018-06-28T04:53:16.772Z,14.80
2018-06-28T04:55:45.812Z,14.80
2018-06-28T04:58:14.976Z,14.90
2018-06-28T05:00:44.004Z,15.00
2018-06-28T05:03:13.052Z,15.10
2018-06-28T05:05:42.121Z,15.10
2018-06-28T05:08:11.128Z,15.20
2018-06-28T05:10:40.140Z,15.30
2018-06-28T05:13:09.177Z,15.40
2018-06-28T05:15:38.264Z,15.50
2018-06-28T05:18:07.265Z,15.50
2018-06-28T05:20:36.303Z,15.60
2018-06-28T05:23:05.413Z,15.60
2018-06-28T05:25:34.436Z,15.80
2018-06-28T05:28:03.452Z,15.80
2018-06-28T05:30:32.500Z,16.00
2018-06-28T05:33:01.822Z,16.10
2018-06-28T05:35:30.856Z,16.20
2018-06-28T05:37:59.899Z,16.30
2018-06-28T05:40:28.923Z,16.40
2018-06-28T05:47:55.273Z,16.50
2018-06-28T05:52:53.849Z,16.70
2018-06-28T05:55:22.870Z,16.70
2018-06-28T05:57:51.903Z,17.00
2018-06-28T06:00:20.913Z,17.20
2018-06-28T06:02:50.156Z,17.40
2018-06-28T06:05:19.196Z,17.40
2018-06-28T06:10:16.930Z,17.40
2018-06-28T06:15:14.956Z,17.90
2018-06-28T06:17:44.073Z,18.20
2018-06-28T06:20:13.172Z,18.30
2018-06-28T06:22:42.140Z,18.30
2018-06-28T06:27:40.084Z,19.00
2018-06-28T06:30:09.924Z,19.00
2018-06-28T06:32:39.003Z,19.00
2018-06-28T06:35:08.052Z,19.60
2018-06-28T06:40:05.780Z,19.40
2018-06-28T06:42:34.869Z,19.50
2018-06-28T06:45:04.517Z,19.40
2018-06-28T06:47:33.568Z,20.00
2018-06-28T06:50:03.178Z,20.00
2018-06-28T06:52:32.199Z,20.20
2018-06-28T06:55:01.267Z,20.50
2018-06-28T06:57:30.315Z,20.80
2018-06-28T06:59:59.356Z,20.50
2018-06-28T07:02:28.469Z,20.60
2018-06-28T07:04:57.829Z,20.60
2018-06-28T07:07:26.868Z,21.20
2018-06-28T07:09:55.909Z,21.00
2018-06-28T07:12:24.956Z,21.30
2018-06-28T07:14:53.984Z,21.70
2018-06-28T07:17:23.017Z,21.60
2018-06-28T07:19:52.066Z,22.10
2018-06-28T07:22:21.150Z,22.20
2018-06-28T07:24:50.168Z,22.90
2018-06-28T07:27:19.212Z,22.90
2018-06-28T07:29:48.293Z,23.40
2018-06-28T07:34:45.952Z,23.10
2018-06-28T07:37:15.009Z,23.20
2018-06-28T07:39:44.092Z,23.40
2018-06-28T07:42:13.239Z,23.50
2018-06-28T07:44:42.292Z,23.60
2018-06-28T07:47:11.333Z,23.30
2018-06-28T07:52:09.008Z,24.00
2018-06-28T07:54:38.037Z,24.00
2018-06-28T07:57:07.075Z,23.80
2018-06-28T07:59:36.175Z,23.80
2018-06-28T08:02:05.234Z,23.80
2018-06-28T08:04:34.248Z,24.40
2018-06-28T08:07:03.313Z,23.70
2018-06-28T08:09:32.341Z,23.90
2018-06-28T08:12:01.512Z,24.20
2018-06-28T08:14:30.567Z,25.00
2018-06-28T08:16:59.832Z,25.30
2018-06-28T08:24:26.501Z,24.60
2018-06-28T08:29:24.396Z,24.50
2018-06-28T08:34:22.148Z,25.40
2018-06-28T08:36:51.547Z,25.10
2018-06-28T08:39:20.712Z,24.80
2018-06-28T08:41:49.765Z,25.20
2018-06-28T08:44:18.813Z,25.60
2018-06-28T08:49:16.492Z,25.50
2018-06-28T08:54:14.167Z,24.80
2018-06-28T09:04:09.428Z,26.00
2018-06-28T09:11:37.051Z,26.10
2018-06-28T09:16:35.383Z,26.10
2018-06-28T09:26:30.660Z,27.20
2018-06-28T09:31:28.801Z,26.80
2018-06-28T09:38:55.818Z,27.90
2018-06-28T09:41:24.912Z,27.60
2018-06-28T09:46:22.580Z,27.20
2018-06-28T09:56:17.936Z,27.60
2018-06-28T09:58:46.947Z,27.40
2018-06-28T10:08:42.478Z,27.50
2018-06-28T10:13:40.331Z,26.60
2018-06-28T10:16:09.411Z,28.30
2018-06-28T10:21:07.311Z,28.90
2018-06-28T10:23:36.343Z,28.70
2018-06-28T10:26:05.665Z,27.60
2018-06-28T10:28:34.742Z,27.80
2018-06-28T10:38:29.728Z,27.50
2018-06-28T10:40:58.859Z,28.80
2018-06-28T10:45:57.695Z,28.20
2018-06-28T10:48:27.406Z,27.70
2018-06-28T10:50:56.496Z,28.10
2018-06-28T10:53:25.837Z,27.50
2018-06-28T10:55:54.854Z,27.70
2018-06-28T10:58:23.876Z,27.90
2018-06-28T11:00:52.959Z,27.90
2018-06-28T11:03:21.972Z,27.50
2018-06-28T11:05:52.023Z,29.30
2018-06-28T11:08:21.132Z,28.90
2018-06-28T11:10:50.718Z,28.40
2018-06-28T11:13:20.319Z,28.50
2018-06-28T11:15:50.345Z,28.60
2018-06-28T11:18:19.456Z,28.80
2018-06-28T11:20:48.746Z,28.00
2018-06-28T11:23:18.296Z,29.00
2018-06-28T11:25:47.719Z,28.60
2018-06-28T11:28:16.755Z,28.70
2018-06-28T11:30:46.376Z,28.80
2018-06-28T11:33:15.380Z,27.80
2018-06-28T11:35:44.644Z,28.00
2018-06-28T11:43:10.910Z,28.50
2018-06-28T11:45:39.977Z,28.60
2018-06-28T11:48:09.064Z,29.00
2018-06-28T11:50:38.132Z,29.10
2018-06-28T11:53:07.164Z,29.00
2018-06-28T11:55:36.259Z,28.10
2018-06-28T11:58:05.604Z,29.20
2018-06-28T12:00:34.651Z,29.50
2018-06-28T12:05:32.371Z,30.50
2018-06-28T12:08:01.341Z,28.60
2018-06-28T12:10:30.377Z,28.60
2018-06-28T12:15:28.107Z,28.90
2018-06-28T12:20:25.743Z,28.70
2018-06-28T12:22:54.844Z,29.20
2018-06-28T12:27:52.519Z,29.30
2018-06-28T12:30:21.567Z,28.70
2018-06-28T12:32:50.639Z,28.40
2018-06-28T12:35:19.655Z,28.80
2018-06-28T12:37:48.672Z,29.30
2018-06-28T12:40:17.691Z,29.30
2018-06-28T12:42:46.869Z,29.30
2018-06-28T12:45:17.966Z,30.10
2018-06-28T12:47:58.807Z,29.30
2018-06-28T12:50:28.226Z,29.90
2018-06-28T12:52:59.437Z,29.60
2018-06-28T12:56:32.772Z,29.40
2018-06-28T12:59:03.474Z,28.90
2018-06-28T13:04:01.667Z,30.00
2018-06-28T13:06:30.744Z,29.00
2018-06-28T13:11:29.499Z,28.80
2018-06-28T13:18:56.807Z,29.70
2018-06-28T13:21:25.841Z,29.40
2018-06-28T13:23:54.871Z,29.20
2018-06-28T13:26:24.372Z,29.30
2018-06-28T13:28:53.383Z,29.80
2018-06-28T13:36:19.647Z,28.90
2018-06-28T13:38:48.715Z,28.50
2018-06-28T13:48:43.671Z,29.10
2018-06-28T13:51:12.758Z,28.70
2018-06-28T13:56:10.415Z,30.60
2018-06-28T13:58:39.567Z,30.60
2018-06-28T14:01:08.631Z,29.90
2018-06-28T14:03:37.639Z,30.40
2018-06-28T14:08:35.315Z,29.40
2018-06-28T14:13:33.024Z,29.30
2018-06-28T14:16:02.040Z,29.00
2018-06-28T14:18:31.039Z,29.00
2018-06-28T14:21:00.098Z,30.70
2018-06-28T14:25:57.813Z,29.20
2018-06-28T14:28:26.871Z,30.00
2018-06-28T14:30:55.912Z,29.80
2018-06-28T14:33:24.984Z,29.60
2018-06-28T14:35:54.005Z,29.60
2018-06-28T14:38:23.036Z,30.20
2018-06-28T14:40:52.085Z,29.80
2018-06-28T14:43:21.096Z,29.70
2018-06-28T14:45:50.119Z,29.70
2018-06-28T14:48:19.152Z,29.70
2018-06-28T14:50:48.179Z,30.30
2018-06-28T14:53:17.226Z,30.40
2018-06-28T14:58:15.021Z,29.70
2018-06-28T15:00:44.219Z,29.60
2018-06-28T15:03:13.419Z,29.70
2018-06-28T15:05:42.503Z,29.20
2018-06-28T15:08:12.093Z,28.70
2018-06-28T15:10:41.141Z,29.30
2018-06-28T15:13:10.179Z,29.30
2018-06-28T15:15:39.215Z,28.20
2018-06-28T15:18:08.254Z,28.20
2018-06-28T15:23:06.243Z,27.60
2018-06-28T15:25:35.421Z,28.50
2018-06-28T15:28:04.483Z,30.90
2018-06-28T15:30:33.895Z,28.80
2018-06-28T15:35:31.866Z,28.50
2018-06-28T15:38:00.917Z,28.00
2018-06-28T15:40:29.929Z,27.60
2018-06-28T15:45:27.641Z,28.80
2018-06-28T15:47:56.691Z,28.40
2018-06-28T15:50:25.916Z,27.90
2018-06-28T15:52:54.977Z,28.10
2018-06-28T15:55:24.032Z,28.10
2018-06-28T15:57:53.236Z,27.30
2018-06-28T16:00:22.340Z,27.30
2018-06-28T16:02:51.378Z,26.30
2018-06-28T16:07:49.448Z,26.50
2018-06-28T16:10:18.478Z,26.70
2018-06-28T16:15:16.175Z,26.00
2018-06-28T16:17:45.215Z,25.70
2018-06-28T16:25:11.622Z,25.40
2018-06-28T16:27:40.678Z,25.60
2018-06-28T16:32:38.320Z,25.20
2018-06-28T16:35:07.348Z,24.70
2018-06-28T16:37:36.395Z,24.70
2018-06-28T16:40:05.491Z,24.60
2018-06-28T16:45:03.200Z,24.60
2018-06-28T16:47:32.217Z,24.10
2018-06-28T16:50:01.285Z,24.10
2018-06-28T16:52:30.304Z,24.00
2018-06-28T16:57:27.974Z,24.50
2018-06-28T16:59:56.988Z,24.70
2018-06-28T17:02:26.040Z,24.70
2018-06-28T17:04:55.076Z,23.90
2018-06-28T17:09:52.926Z,23.70
2018-06-28T17:14:50.625Z,23.80
2018-06-28T17:17:19.708Z,24.00
2018-06-28T17:19:48.747Z,24.00
2018-06-28T17:22:17.784Z,23.80
2018-06-28T17:24:46.814Z,23.70
2018-06-28T17:27:15.840Z,23.40
2018-06-28T17:32:13.512Z,23.40
2018-06-28T17:52:09.963Z,22.40
2018-06-28T17:54:38.979Z,22.40
2018-06-28T18:02:11.531Z,22.20
2018-06-28T18:14:35.083Z,21.90
2018-06-28T18:29:34.293Z,21.60
2018-06-28T18:32:03.368Z,21.50
2018-06-28T18:34:32.663Z,21.40
2018-06-28T18:37:01.689Z,21.40
2018-06-28T18:46:56.720Z,21.20
2018-06-28T18:49:25.727Z,21.60
2018-06-28T18:54:23.409Z,21.00
2018-06-28T19:06:47.200Z,20.80
2018-06-28T19:11:44.785Z,20.60
2018-06-28T19:14:19.201Z,20.60
2018-06-28T19:16:53.419Z,20.50
2018-06-28T19:19:22.472Z,20.50
2018-06-28T19:21:56.901Z,20.40
2018-06-28T19:24:26.155Z,20.30
2018-06-28T19:26:55.235Z,20.20
2018-06-28T19:29:29.583Z,20.20
2018-06-28T19:32:03.903Z,20.10
2018-06-28T19:34:32.942Z,20.00
2018-06-28T19:39:36.454Z,19.70
2018-06-28T19:42:10.731Z,19.70
2018-06-28T19:44:39.815Z,19.60
2018-06-28T19:47:08.858Z,19.50
2018-06-28T19:49:43.135Z,19.30
2018-06-28T19:52:17.633Z,19.20
2018-06-28T19:57:15.280Z,19.00
2018-06-28T19:59:47.135Z,18.90
2018-06-28T20:04:51.167Z,18.80
2018-06-28T20:07:20.278Z,18.80
2018-06-28T20:09:49.299Z,18.50
2018-06-28T20:12:23.687Z,18.50
2018-06-28T20:17:31.984Z,18.40
2018-06-28T20:20:06.303Z,18.40
2018-06-28T20:22:35.356Z,18.30
2018-06-28T20:25:04.482Z,18.30
2018-06-28T20:30:12.620Z,18.00
2018-06-28T20:32:46.924Z,17.80
2018-06-28T20:35:15.992Z,17.80
2018-06-28T20:37:45.272Z,17.70
2018-06-28T20:40:14.344Z,17.70
2018-06-28T20:42:43.416Z,17.70
2018-06-28T20:45:12.564Z,17.50
2018-06-28T20:47:41.512Z,17.60
2018-06-28T20:50:10.807Z,17.60
2018-06-28T20:52:39.850Z,17.40
2018-06-28T20:55:09.144Z,17.40
2018-06-28T20:57:39.117Z,17.30
2018-06-28T21:00:09.496Z,17.30
2018-06-28T21:02:39.083Z,17.10
2018-06-28T21:05:08.128Z,16.90
2018-06-28T21:07:37.154Z,17.00
2018-06-28T21:10:06.481Z,17.00
2018-06-28T21:12:35.472Z,16.80
2018-06-28T21:15:04.758Z,16.90
2018-06-28T21:17:33.822Z,16.60
2018-06-28T21:20:02.827Z,16.90
2018-06-28T21:22:32.210Z,16.90
2018-06-28T21:25:01.287Z,16.50
2018-06-28T21:27:30.307Z,16.70
2018-06-28T21:29:59.396Z,16.60
2018-06-28T21:32:28.596Z,16.50
2018-06-28T21:34:57.595Z,16.40
2018-06-28T21:37:26.588Z,16.50
2018-06-28T21:39:56.167Z,16.40
2018-06-28T21:42:25.245Z,16.40
2018-06-28T21:44:54.246Z,16.40
2018-06-28T21:47:23.303Z,16.40
2018-06-28T21:49:52.340Z,16.40
2018-06-28T21:52:22.348Z,16.40
2018-06-28T21:54:51.400Z,16.40
2018-06-28T21:57:20.439Z,16.30
2018-06-28T21:59:49.784Z,16.20
2018-06-28T22:02:18.773Z,16.10
2018-06-28T22:07:16.478Z,16.00
2018-06-28T22:09:45.490Z,16.00
2018-06-28T22:12:14.517Z,16.00
2018-06-28T22:14:43.563Z,16.00
2018-06-28T22:17:12.580Z,15.90
2018-06-28T22:19:41.614Z,15.80
2018-06-28T22:22:10.696Z,15.90
2018-06-28T22:24:40.115Z,15.80
2018-06-28T22:27:09.151Z,15.80
2018-06-28T22:29:38.143Z,15.80
2018-06-28T22:32:07.244Z,15.80
2018-06-28T22:34:36.271Z,15.80
2018-06-28T22:37:05.612Z,15.80
2018-06-28T22:42:03.242Z,15.60
2018-06-28T22:47:00.907Z,15.50
2018-06-28T22:49:29.937Z,15.50
2018-06-28T22:51:58.969Z,15.40
2018-06-28T22:54:28.639Z,15.40
2018-06-28T22:56:57.700Z,15.40
2018-06-28T22:59:26.753Z,15.40
2018-06-28T23:01:55.763Z,15.30
2018-06-28T23:06:53.763Z,15.20
2018-06-28T23:11:51.923Z,15.30
2018-06-28T23:14:20.964Z,15.30
2018-06-28T23:19:18.711Z,15.40
2018-06-28T23:21:47.680Z,15.30
2018-06-28T23:24:16.719Z,15.30
2018-06-28T23:26:45.742Z,15.20
2018-06-28T23:29:14.823Z,15.20
2018-06-28T23:31:44.105Z,15.20
2018-06-28T23:36:41.779Z,15.10
2018-06-28T23:39:11.871Z,15.20
2018-06-28T23:44:09.555Z,15.20
2018-06-28T23:46:38.624Z,15.20
2018-06-28T23:49:07.763Z,15.10
2018-06-28T23:51:36.895Z,15.00
2018-06-28T23:54:05.979Z,15.00
2018-06-28T23:56:35.622Z,15.10
2018-06-28T23:59:04.635Z,15.00
